sensor_id;sensor_type;location;lat;lon;timestamp;temperature;humidity
70708;SHT30;58277;47.316;18.908;2024-03-25T00:01:25;5.68;75.66
70708;SHT30;58277;47.316;18.908;2024-03-25T00:03:47;5.60;75.44
70708;SHT30;58277;47.316;18.908;2024-03-25T00:06:11;5.65;75.40
70708;SHT30;58277;47.316;18.908;2024-03-25T00:08:34;5.64;75.50
70708;SHT30;58277;47.316;18.908;2024-03-25T00:10:56;5.58;75.45
70708;SHT30;58277;47.316;18.908;2024-03-25T00:13:18;5.71;74.75
70708;SHT30;58277;47.316;18.908;2024-03-25T00:15:41;5.74;74.37
70708;SHT30;58277;47.316;18.908;2024-03-25T00:18:04;5.63;74.84
70708;SHT30;58277;47.316;18.908;2024-03-25T00:20:26;5.56;74.47
70708;SHT30;58277;47.316;18.908;2024-03-25T00:22:48;5.60;74.55
70708;SHT30;58277;47.316;18.908;2024-03-25T00:25:09;5.61;74.74
70708;SHT30;58277;47.316;18.908;2024-03-25T00:27:31;5.47;74.81
70708;SHT30;58277;47.316;18.908;2024-03-25T00:29:53;5.39;74.90
70708;SHT30;58277;47.316;18.908;2024-03-25T00:32:15;5.32;75.15
70708;SHT30;58277;47.316;18.908;2024-03-25T00:34:36;5.30;74.98
70708;SHT30;58277;47.316;18.908;2024-03-25T00:36:59;5.27;74.71
70708;SHT30;58277;47.316;18.908;2024-03-25T00:39:20;5.18;75.28
70708;SHT30;58277;47.316;18.908;2024-03-25T00:41:43;5.00;76.22
70708;SHT30;58277;47.316;18.908;2024-03-25T00:44:05;4.95;76.36
70708;SHT30;58277;47.316;18.908;2024-03-25T00:46:26;4.96;76.93
70708;SHT30;58277;47.316;18.908;2024-03-25T00:48:49;4.87;77.20
70708;SHT30;58277;47.316;18.908;2024-03-25T00:51:10;4.87;77.27
70708;SHT30;58277;47.316;18.908;2024-03-25T00:53:32;4.81;77.54
70708;SHT30;58277;47.316;18.908;2024-03-25T00:55:54;4.82;77.76
70708;SHT30;58277;47.316;18.908;2024-03-25T00:58:16;4.85;77.41
70708;SHT30;58277;47.316;18.908;2024-03-25T01:00:38;4.89;77.01
70708;SHT30;58277;47.316;18.908;2024-03-25T01:02:59;4.96;76.75
70708;SHT30;58277;47.316;18.908;2024-03-25T01:05:21;4.79;76.78
70708;SHT30;58277;47.316;18.908;2024-03-25T01:07:43;4.87;76.62
70708;SHT30;58277;47.316;18.908;2024-03-25T01:10:05;4.95;76.84
70708;SHT30;58277;47.316;18.908;2024-03-25T01:12:27;4.99;76.47
70708;SHT30;58277;47.316;18.908;2024-03-25T01:14:49;4.89;76.24
70708;SHT30;58277;47.316;18.908;2024-03-25T01:17:11;4.88;76.15
70708;SHT30;58277;47.316;18.908;2024-03-25T01:19:33;4.89;76.37
70708;SHT30;58277;47.316;18.908;2024-03-25T01:21:54;4.82;76.10
70708;SHT30;58277;47.316;18.908;2024-03-25T01:24:16;4.64;76.37
70708;SHT30;58277;47.316;18.908;2024-03-25T01:26:38;4.60;76.65
70708;SHT30;58277;47.316;18.908;2024-03-25T01:29:00;4.58;76.75
70708;SHT30;58277;47.316;18.908;2024-03-25T01:31:22;4.61;76.94
70708;SHT30;58277;47.316;18.908;2024-03-25T01:33:43;4.60;76.79
70708;SHT30;58277;47.316;18.908;2024-03-25T01:36:05;4.53;76.84
70708;SHT30;58277;47.316;18.908;2024-03-25T01:38:28;4.47;76.98
70708;SHT30;58277;47.316;18.908;2024-03-25T01:40:50;4.60;76.70
70708;SHT30;58277;47.316;18.908;2024-03-25T01:43:11;4.50;76.74
70708;SHT30;58277;47.316;18.908;2024-03-25T01:45:35;4.41;77.62
70708;SHT30;58277;47.316;18.908;2024-03-25T01:47:58;4.50;77.90
70708;SHT30;58277;47.316;18.908;2024-03-25T01:50:21;4.54;78.17
70708;SHT30;58277;47.316;18.908;2024-03-25T01:52:43;4.62;78.09
70708;SHT30;58277;47.316;18.908;2024-03-25T01:55:07;4.70;77.62
70708;SHT30;58277;47.316;18.908;2024-03-25T01:57:30;4.67;77.67
70708;SHT30;58277;47.316;18.908;2024-03-25T01:59:52;4.78;77.23
70708;SHT30;58277;47.316;18.908;2024-03-25T02:02:13;4.81;77.22
70708;SHT30;58277;47.316;18.908;2024-03-25T02:04:35;4.79;77.09
70708;SHT30;58277;47.316;18.908;2024-03-25T02:06:57;4.96;76.67
70708;SHT30;58277;47.316;18.908;2024-03-25T02:09:20;4.88;76.46
70708;SHT30;58277;47.316;18.908;2024-03-25T02:11:41;4.89;76.38
70708;SHT30;58277;47.316;18.908;2024-03-25T02:14:04;4.95;76.23
70708;SHT30;58277;47.316;18.908;2024-03-25T02:16:27;4.96;76.26
70708;SHT30;58277;47.316;18.908;2024-03-25T02:18:48;5.08;75.66
70708;SHT30;58277;47.316;18.908;2024-03-25T02:21:10;5.12;75.65
70708;SHT30;58277;47.316;18.908;2024-03-25T02:23:32;5.06;75.69
70708;SHT30;58277;47.316;18.908;2024-03-25T02:25:56;5.11;75.52
70708;SHT30;58277;47.316;18.908;2024-03-25T02:28:17;5.13;75.19
70708;SHT30;58277;47.316;18.908;2024-03-25T02:30:39;5.18;75.21
70708;SHT30;58277;47.316;18.908;2024-03-25T02:33:02;5.13;75.28
70708;SHT30;58277;47.316;18.908;2024-03-25T02:35:25;5.16;75.21
70708;SHT30;58277;47.316;18.908;2024-03-25T02:37:50;5.22;75.00
70708;SHT30;58277;47.316;18.908;2024-03-25T02:40:12;5.30;74.92
70708;SHT30;58277;47.316;18.908;2024-03-25T02:42:33;5.39;74.64
70708;SHT30;58277;47.316;18.908;2024-03-25T02:44:56;5.42;74.83
70708;SHT30;58277;47.316;18.908;2024-03-25T02:47:17;5.33;75.38
70708;SHT30;58277;47.316;18.908;2024-03-25T02:49:40;5.39;75.20
70708;SHT30;58277;47.316;18.908;2024-03-25T02:52:04;5.44;75.01
70708;SHT30;58277;47.316;18.908;2024-03-25T02:54:26;5.36;75.21
70708;SHT30;58277;47.316;18.908;2024-03-25T02:56:48;5.35;75.13
70708;SHT30;58277;47.316;18.908;2024-03-25T02:59:10;5.50;75.08
70708;SHT30;58277;47.316;18.908;2024-03-25T03:01:31;5.54;75.03
70708;SHT30;58277;47.316;18.908;2024-03-25T03:03:53;5.47;74.89
70708;SHT30;58277;47.316;18.908;2024-03-25T03:06:15;5.53;75.19
70708;SHT30;58277;47.316;18.908;2024-03-25T03:08:37;5.63;74.71
70708;SHT30;58277;47.316;18.908;2024-03-25T03:10:59;5.75;74.76
70708;SHT30;58277;47.316;18.908;2024-03-25T03:13:20;5.87;73.86
70708;SHT30;58277;47.316;18.908;2024-03-25T03:15:45;5.98;73.58
70708;SHT30;58277;47.316;18.908;2024-03-25T03:18:07;6.11;73.14
70708;SHT30;58277;47.316;18.908;2024-03-25T03:20:29;6.21;72.51
70708;SHT30;58277;47.316;18.908;2024-03-25T03:22:50;6.33;72.64
70708;SHT30;58277;47.316;18.908;2024-03-25T03:25:12;6.36;72.51
70708;SHT30;58277;47.316;18.908;2024-03-25T03:27:34;6.42;72.27
70708;SHT30;58277;47.316;18.908;2024-03-25T03:29:55;6.47;72.01
70708;SHT30;58277;47.316;18.908;2024-03-25T03:32:17;6.39;72.45
70708;SHT30;58277;47.316;18.908;2024-03-25T03:34:39;6.53;71.90
70708;SHT30;58277;47.316;18.908;2024-03-25T03:37:00;6.49;72.05
70708;SHT30;58277;47.316;18.908;2024-03-25T03:39:22;6.32;72.24
70708;SHT30;58277;47.316;18.908;2024-03-25T03:41:44;6.22;72.41
70708;SHT30;58277;47.316;18.908;2024-03-25T03:44:05;6.12;73.03
70708;SHT30;58277;47.316;18.908;2024-03-25T03:46:28;6.06;73.17
70708;SHT30;58277;47.316;18.908;2024-03-25T03:48:49;5.88;74.26
70708;SHT30;58277;47.316;18.908;2024-03-25T03:51:11;5.65;74.89
70708;SHT30;58277;47.316;18.908;2024-03-25T03:53:33;5.63;74.34
70708;SHT30;58277;47.316;18.908;2024-03-25T03:55:59;5.50;74.94
70708;SHT30;58277;47.316;18.908;2024-03-25T03:58:21;5.26;75.62
70708;SHT30;58277;47.316;18.908;2024-03-25T04:00:43;5.16;75.93
70708;SHT30;58277;47.316;18.908;2024-03-25T04:03:05;5.15;75.81
70708;SHT30;58277;47.316;18.908;2024-03-25T04:05:30;5.12;76.58
70708;SHT30;58277;47.316;18.908;2024-03-25T04:07:52;5.30;76.28
70708;SHT30;58277;47.316;18.908;2024-03-25T04:10:14;5.37;75.83
70708;SHT30;58277;47.316;18.908;2024-03-25T04:12:35;5.65;75.35
70708;SHT30;58277;47.316;18.908;2024-03-25T04:14:58;5.61;75.65
70708;SHT30;58277;47.316;18.908;2024-03-25T04:17:20;5.78;75.39
70708;SHT30;58277;47.316;18.908;2024-03-25T04:19:42;5.88;74.95
70708;SHT30;58277;47.316;18.908;2024-03-25T04:22:04;5.88;73.10
70708;SHT30;58277;47.316;18.908;2024-03-25T04:24:26;6.09;72.43
70708;SHT30;58277;47.316;18.908;2024-03-25T04:26:48;6.12;72.28
70708;SHT30;58277;47.316;18.908;2024-03-25T04:29:09;6.18;72.65
70708;SHT30;58277;47.316;18.908;2024-03-25T04:31:31;6.33;73.06
70708;SHT30;58277;47.316;18.908;2024-03-25T04:33:53;6.29;72.27
70708;SHT30;58277;47.316;18.908;2024-03-25T04:36:14;6.36;72.07
70708;SHT30;58277;47.316;18.908;2024-03-25T04:38:37;6.34;71.88
70708;SHT30;58277;47.316;18.908;2024-03-25T04:41:00;6.42;71.72
70708;SHT30;58277;47.316;18.908;2024-03-25T04:43:21;6.47;71.45
70708;SHT30;58277;47.316;18.908;2024-03-25T04:45:43;6.54;71.46
70708;SHT30;58277;47.316;18.908;2024-03-25T04:48:05;6.49;71.96
70708;SHT30;58277;47.316;18.908;2024-03-25T04:50:30;6.51;72.11
70708;SHT30;58277;47.316;18.908;2024-03-25T04:52:52;6.63;72.05
70708;SHT30;58277;47.316;18.908;2024-03-25T04:55:14;6.63;71.78
70708;SHT30;58277;47.316;18.908;2024-03-25T04:57:36;6.70;71.85
70708;SHT30;58277;47.316;18.908;2024-03-25T04:59:58;6.77;71.53
70708;SHT30;58277;47.316;18.908;2024-03-25T05:02:20;6.78;71.97
70708;SHT30;58277;47.316;18.908;2024-03-25T05:04:41;6.83;72.27
70708;SHT30;58277;47.316;18.908;2024-03-25T05:07:03;6.85;71.83
70708;SHT30;58277;47.316;18.908;2024-03-25T05:09:25;6.78;71.85
70708;SHT30;58277;47.316;18.908;2024-03-25T05:11:46;6.81;71.73
70708;SHT30;58277;47.316;18.908;2024-03-25T05:14:08;6.83;72.02
70708;SHT30;58277;47.316;18.908;2024-03-25T05:16:29;6.85;71.95
70708;SHT30;58277;47.316;18.908;2024-03-25T05:18:51;6.87;71.92
70708;SHT30;58277;47.316;18.908;2024-03-25T05:21:13;6.97;71.69
70708;SHT30;58277;47.316;18.908;2024-03-25T05:23:35;7.12;71.46
70708;SHT30;58277;47.316;18.908;2024-03-25T05:25:56;7.04;71.59
70708;SHT30;58277;47.316;18.908;2024-03-25T05:28:18;7.11;71.87
70708;SHT30;58277;47.316;18.908;2024-03-25T05:30:40;7.12;71.76
70708;SHT30;58277;47.316;18.908;2024-03-25T05:33:02;7.09;71.96
70708;SHT30;58277;47.316;18.908;2024-03-25T05:35:23;7.19;72.39
70708;SHT30;58277;47.316;18.908;2024-03-25T05:37:45;7.22;72.35
70708;SHT30;58277;47.316;18.908;2024-03-25T05:40:07;7.22;72.18
70708;SHT30;58277;47.316;18.908;2024-03-25T05:42:32;7.29;72.23
70708;SHT30;58277;47.316;18.908;2024-03-25T05:44:54;7.22;72.57
70708;SHT30;58277;47.316;18.908;2024-03-25T05:47:16;7.29;72.70
70708;SHT30;58277;47.316;18.908;2024-03-25T05:49:37;7.15;73.24
70708;SHT30;58277;47.316;18.908;2024-03-25T05:51:59;7.16;73.40
70708;SHT30;58277;47.316;18.908;2024-03-25T05:54:21;7.20;73.50
70708;SHT30;58277;47.316;18.908;2024-03-25T05:56:48;7.16;73.84
70708;SHT30;58277;47.316;18.908;2024-03-25T05:59:09;7.16;74.16
70708;SHT30;58277;47.316;18.908;2024-03-25T06:01:31;7.28;73.94
70708;SHT30;58277;47.316;18.908;2024-03-25T06:03:54;7.30;73.93
70708;SHT30;58277;47.316;18.908;2024-03-25T06:06:16;7.26;74.14
70708;SHT30;58277;47.316;18.908;2024-03-25T06:08:39;7.28;74.10
70708;SHT30;58277;47.316;18.908;2024-03-25T06:11:01;7.42;73.98
70708;SHT30;58277;47.316;18.908;2024-03-25T06:13:23;7.52;73.42
70708;SHT30;58277;47.316;18.908;2024-03-25T06:15:45;7.64;73.13
70708;SHT30;58277;47.316;18.908;2024-03-25T06:18:07;7.69;72.88
70708;SHT30;58277;47.316;18.908;2024-03-25T06:20:33;7.78;72.86
70708;SHT30;58277;47.316;18.908;2024-03-25T06:22:56;7.95;72.16
70708;SHT30;58277;47.316;18.908;2024-03-25T06:25:17;8.15;71.60
70708;SHT30;58277;47.316;18.908;2024-03-25T06:27:39;8.18;71.57
70708;SHT30;58277;47.316;18.908;2024-03-25T06:30:02;8.31;71.37
70708;SHT30;58277;47.316;18.908;2024-03-25T06:32:43;8.50;70.93
70708;SHT30;58277;47.316;18.908;2024-03-25T06:35:23;8.69;70.38
70708;SHT30;58277;47.316;18.908;2024-03-25T06:37:45;8.69;70.22
70708;SHT30;58277;47.316;18.908;2024-03-25T06:40:07;8.60;70.57
70708;SHT30;58277;47.316;18.908;2024-03-25T06:42:30;8.76;69.98
70708;SHT30;58277;47.316;18.908;2024-03-25T06:44:52;8.83;69.08
70708;SHT30;58277;47.316;18.908;2024-03-25T06:47:14;8.84;69.52
70708;SHT30;58277;47.316;18.908;2024-03-25T06:49:38;8.88;68.22
70708;SHT30;58277;47.316;18.908;2024-03-25T06:51:59;9.14;67.76
70708;SHT30;58277;47.316;18.908;2024-03-25T06:54:21;9.19;67.13
70708;SHT30;58277;47.316;18.908;2024-03-25T06:56:43;9.22;67.26
70708;SHT30;58277;47.316;18.908;2024-03-25T06:59:05;9.38;66.72
70708;SHT30;58277;47.316;18.908;2024-03-25T07:01:28;9.72;66.17
70708;SHT30;58277;47.316;18.908;2024-03-25T07:03:51;9.79;65.87
70708;SHT30;58277;47.316;18.908;2024-03-25T07:06:14;10.01;65.13
70708;SHT30;58277;47.316;18.908;2024-03-25T07:08:37;9.91;64.61
70708;SHT30;58277;47.316;18.908;2024-03-25T07:10:59;9.97;64.48
70708;SHT30;58277;47.316;18.908;2024-03-25T07:13:23;10.21;63.70
70708;SHT30;58277;47.316;18.908;2024-03-25T07:15:47;10.62;63.06
70708;SHT30;58277;47.316;18.908;2024-03-25T07:18:11;10.59;62.54
70708;SHT30;58277;47.316;18.908;2024-03-25T07:20:34;10.89;61.72
70708;SHT30;58277;47.316;18.908;2024-03-25T07:22:57;11.08;60.91
70708;SHT30;58277;47.316;18.908;2024-03-25T07:25:18;11.31;60.33
70708;SHT30;58277;47.316;18.908;2024-03-25T07:27:41;11.38;59.99
70708;SHT30;58277;47.316;18.908;2024-03-25T07:30:03;11.66;60.29
70708;SHT30;58277;47.316;18.908;2024-03-25T07:32:31;11.66;58.86
70708;SHT30;58277;47.316;18.908;2024-03-25T07:34:52;11.72;58.64
70708;SHT30;58277;47.316;18.908;2024-03-25T07:37:14;11.65;59.07
70708;SHT30;58277;47.316;18.908;2024-03-25T07:39:36;12.57;55.96
70708;SHT30;58277;47.316;18.908;2024-03-25T07:42:00;12.99;53.78
70708;SHT30;58277;47.316;18.908;2024-03-25T07:44:22;13.50;52.44
70708;SHT30;58277;47.316;18.908;2024-03-25T07:46:44;13.64;52.73
70708;SHT30;58277;47.316;18.908;2024-03-25T07:49:06;14.04;51.16
70708;SHT30;58277;47.316;18.908;2024-03-25T07:51:29;14.06;50.92
70708;SHT30;58277;47.316;18.908;2024-03-25T07:53:51;13.73;51.98
70708;SHT30;58277;47.316;18.908;2024-03-25T07:56:15;12.92;52.50
70708;SHT30;58277;47.316;18.908;2024-03-25T07:58:37;12.60;52.72
70708;SHT30;58277;47.316;18.908;2024-03-25T08:00:59;11.99;54.63
70708;SHT30;58277;47.316;18.908;2024-03-25T08:03:21;11.89;55.67
70708;SHT30;58277;47.316;18.908;2024-03-25T08:05:50;12.02;56.04
70708;SHT30;58277;47.316;18.908;2024-03-25T08:08:11;12.27;54.98
70708;SHT30;58277;47.316;18.908;2024-03-25T08:10:33;12.33;54.63
70708;SHT30;58277;47.316;18.908;2024-03-25T08:12:55;12.10;54.44
70708;SHT30;58277;47.316;18.908;2024-03-25T08:15:20;11.68;54.46
70708;SHT30;58277;47.316;18.908;2024-03-25T08:17:42;12.26;53.84
70708;SHT30;58277;47.316;18.908;2024-03-25T08:20:05;13.02;52.31
70708;SHT30;58277;47.316;18.908;2024-03-25T08:22:27;13.46;51.65
70708;SHT30;58277;47.316;18.908;2024-03-25T08:24:49;13.44;50.49
70708;SHT30;58277;47.316;18.908;2024-03-25T08:27:11;13.60;51.70
70708;SHT30;58277;47.316;18.908;2024-03-25T08:29:33;13.71;51.18
70708;SHT30;58277;47.316;18.908;2024-03-25T08:31:54;13.30;51.19
70708;SHT30;58277;47.316;18.908;2024-03-25T08:34:17;13.39;50.95
70708;SHT30;58277;47.316;18.908;2024-03-25T08:36:39;13.95;51.74
70708;SHT30;58277;47.316;18.908;2024-03-25T08:39:01;14.16;48.99
70708;SHT30;58277;47.316;18.908;2024-03-25T08:41:23;13.88;49.71
70708;SHT30;58277;47.316;18.908;2024-03-25T08:43:45;13.73;50.32
70708;SHT30;58277;47.316;18.908;2024-03-25T08:46:07;13.47;51.24
70708;SHT30;58277;47.316;18.908;2024-03-25T08:48:29;13.46;49.49
70708;SHT30;58277;47.316;18.908;2024-03-25T08:50:51;13.63;49.74
70708;SHT30;58277;47.316;18.908;2024-03-25T08:53:12;13.85;50.20
70708;SHT30;58277;47.316;18.908;2024-03-25T08:55:34;14.06;48.54
70708;SHT30;58277;47.316;18.908;2024-03-25T08:57:59;14.18;48.19
70708;SHT30;58277;47.316;18.908;2024-03-25T09:00:21;14.29;49.01
70708;SHT30;58277;47.316;18.908;2024-03-25T09:02:45;14.76;47.08
70708;SHT30;58277;47.316;18.908;2024-03-25T09:05:07;15.16;45.80
70708;SHT30;58277;47.316;18.908;2024-03-25T09:07:29;15.06;45.82
70708;SHT30;58277;47.316;18.908;2024-03-25T09:09:51;14.85;45.92
70708;SHT30;58277;47.316;18.908;2024-03-25T09:12:33;14.55;45.64
70708;SHT30;58277;47.316;18.908;2024-03-25T09:14:57;14.41;46.23
70708;SHT30;58277;47.316;18.908;2024-03-25T09:17:22;14.51;45.37
70708;SHT30;58277;47.316;18.908;2024-03-25T09:19:49;15.01;46.04
70708;SHT30;58277;47.316;18.908;2024-03-25T09:22:11;14.85;46.30
70708;SHT30;58277;47.316;18.908;2024-03-25T09:24:33;14.94;46.13
70708;SHT30;58277;47.316;18.908;2024-03-25T09:26:55;15.06;45.36
70708;SHT30;58277;47.316;18.908;2024-03-25T09:29:20;15.05;45.12
70708;SHT30;58277;47.316;18.908;2024-03-25T09:31:42;14.95;44.13
70708;SHT30;58277;47.316;18.908;2024-03-25T09:34:04;14.64;44.78
70708;SHT30;58277;47.316;18.908;2024-03-25T09:36:29;14.33;46.03
70708;SHT30;58277;47.316;18.908;2024-03-25T09:38:52;14.30;46.10
70708;SHT30;58277;47.316;18.908;2024-03-25T09:41:15;14.11;45.09
70708;SHT30;58277;47.316;18.908;2024-03-25T09:43:49;14.18;45.46
70708;SHT30;58277;47.316;18.908;2024-03-25T09:46:15;14.28;45.44
70708;SHT30;58277;47.316;18.908;2024-03-25T09:48:39;14.19;44.87
70708;SHT30;58277;47.316;18.908;2024-03-25T09:51:05;14.06;44.76
70708;SHT30;58277;47.316;18.908;2024-03-25T09:53:30;13.89;44.93
70708;SHT30;58277;47.316;18.908;2024-03-25T09:55:52;13.88;44.88
70708;SHT30;58277;47.316;18.908;2024-03-25T09:58:15;13.71;45.26
70708;SHT30;58277;47.316;18.908;2024-03-25T10:00:41;13.67;45.66
70708;SHT30;58277;47.316;18.908;2024-03-25T10:03:04;13.44;45.72
70708;SHT30;58277;47.316;18.908;2024-03-25T10:05:28;13.50;45.53
70708;SHT30;58277;47.316;18.908;2024-03-25T10:07:50;13.47;46.26
70708;SHT30;58277;47.316;18.908;2024-03-25T10:10:19;13.50;47.81
70708;SHT30;58277;47.316;18.908;2024-03-25T10:12:43;13.50;46.88
70708;SHT30;58277;47.316;18.908;2024-03-25T10:15:05;13.55;46.61
70708;SHT30;58277;47.316;18.908;2024-03-25T10:17:30;13.58;46.81
70708;SHT30;58277;47.316;18.908;2024-03-25T10:19:55;13.47;46.53
70708;SHT30;58277;47.316;18.908;2024-03-25T10:22:17;13.20;46.56
70708;SHT30;58277;47.316;18.908;2024-03-25T10:24:43;13.24;46.47
70708;SHT30;58277;47.316;18.908;2024-03-25T10:27:06;13.78;45.93
70708;SHT30;58277;47.316;18.908;2024-03-25T10:29:31;14.11;45.79
70708;SHT30;58277;47.316;18.908;2024-03-25T10:32:01;14.39;44.52
70708;SHT30;58277;47.316;18.908;2024-03-25T10:34:24;14.49;44.41
70708;SHT30;58277;47.316;18.908;2024-03-25T10:36:46;14.50;44.46
70708;SHT30;58277;47.316;18.908;2024-03-25T10:39:08;14.23;44.35
70708;SHT30;58277;47.316;18.908;2024-03-25T10:41:32;14.19;44.08
70708;SHT30;58277;47.316;18.908;2024-03-25T10:43:58;13.95;44.89
70708;SHT30;58277;47.316;18.908;2024-03-25T10:46:22;14.06;44.70
70708;SHT30;58277;47.316;18.908;2024-03-25T10:49:03;14.11;43.29
70708;SHT30;58277;47.316;18.908;2024-03-25T10:51:29;14.22;44.90
70708;SHT30;58277;47.316;18.908;2024-03-25T10:53:57;14.43;44.66
70708;SHT30;58277;47.316;18.908;2024-03-25T10:56:21;14.76;43.33
70708;SHT30;58277;47.316;18.908;2024-03-25T10:58:43;14.74;43.10
70708;SHT30;58277;47.316;18.908;2024-03-25T11:01:06;14.44;42.12
70708;SHT30;58277;47.316;18.908;2024-03-25T11:03:30;14.20;43.85
70708;SHT30;58277;47.316;18.908;2024-03-25T11:05:54;14.04;43.90
70708;SHT30;58277;47.316;18.908;2024-03-25T11:08:17;13.88;45.01
70708;SHT30;58277;47.316;18.908;2024-03-25T11:10:43;13.57;46.04
70708;SHT30;58277;47.316;18.908;2024-03-25T11:13:10;13.63;46.00
70708;SHT30;58277;47.316;18.908;2024-03-25T11:15:37;13.86;44.88
70708;SHT30;58277;47.316;18.908;2024-03-25T11:18:02;13.92;44.47
70708;SHT30;58277;47.316;18.908;2024-03-25T11:20:25;14.02;43.59
70708;SHT30;58277;47.316;18.908;2024-03-25T11:22:51;14.06;43.83
70708;SHT30;58277;47.316;18.908;2024-03-25T11:25:14;14.19;43.40
70708;SHT30;58277;47.316;18.908;2024-03-25T11:27:37;14.00;43.29
70708;SHT30;58277;47.316;18.908;2024-03-25T11:29:58;14.11;44.02
70708;SHT30;58277;47.316;18.908;2024-03-25T11:32:20;14.20;43.70
70708;SHT30;58277;47.316;18.908;2024-03-25T11:34:50;14.26;42.50
70708;SHT30;58277;47.316;18.908;2024-03-25T11:37:12;14.40;43.09
70708;SHT30;58277;47.316;18.908;2024-03-25T11:39:34;14.50;42.67
70708;SHT30;58277;47.316;18.908;2024-03-25T11:41:56;14.37;43.22
70708;SHT30;58277;47.316;18.908;2024-03-25T11:44:18;14.43;44.20
70708;SHT30;58277;47.316;18.908;2024-03-25T11:46:41;14.49;42.88
70708;SHT30;58277;47.316;18.908;2024-03-25T11:49:05;14.64;42.97
70708;SHT30;58277;47.316;18.908;2024-03-25T11:51:27;14.56;41.55
70708;SHT30;58277;47.316;18.908;2024-03-25T11:53:49;14.64;40.63
70708;SHT30;58277;47.316;18.908;2024-03-25T11:56:11;14.91;41.24
70708;SHT30;58277;47.316;18.908;2024-03-25T11:58:35;14.92;39.76
70708;SHT30;58277;47.316;18.908;2024-03-25T12:01:00;14.99;40.50
70708;SHT30;58277;47.316;18.908;2024-03-25T12:03:22;15.02;40.27
70708;SHT30;58277;47.316;18.908;2024-03-25T12:05:46;15.35;39.79
70708;SHT30;58277;47.316;18.908;2024-03-25T12:08:09;15.54;39.24
70708;SHT30;58277;47.316;18.908;2024-03-25T12:10:31;15.64;38.85
70708;SHT30;58277;47.316;18.908;2024-03-25T12:13:12;15.43;38.83
70708;SHT30;58277;47.316;18.908;2024-03-25T12:15:36;15.24;38.75
70708;SHT30;58277;47.316;18.908;2024-03-25T12:17:58;15.29;37.75
70708;SHT30;58277;47.316;18.908;2024-03-25T12:20:20;14.95;38.99
70708;SHT30;58277;47.316;18.908;2024-03-25T12:22:45;14.46;39.24
70708;SHT30;58277;47.316;18.908;2024-03-25T12:25:07;14.15;41.05
70708;SHT30;58277;47.316;18.908;2024-03-25T12:27:30;13.57;43.41
70708;SHT30;58277;47.316;18.908;2024-03-25T12:32:20;13.13;45.48
70708;SHT30;58277;47.316;18.908;2024-03-25T12:34:42;13.40;44.77
70708;SHT30;58277;47.316;18.908;2024-03-25T12:37:04;13.48;45.16
70708;SHT30;58277;47.316;18.908;2024-03-25T12:39:26;13.47;44.73
70708;SHT30;58277;47.316;18.908;2024-03-25T12:41:49;13.28;44.02
70708;SHT30;58277;47.316;18.908;2024-03-25T12:44:14;13.10;46.71
70708;SHT30;58277;47.316;18.908;2024-03-25T12:46:35;12.96;46.93
70708;SHT30;58277;47.316;18.908;2024-03-25T12:48:58;12.89;46.52
70708;SHT30;58277;47.316;18.908;2024-03-25T12:51:27;12.77;46.34
70708;SHT30;58277;47.316;18.908;2024-03-25T12:53:51;12.40;46.48
70708;SHT30;58277;47.316;18.908;2024-03-25T12:56:14;12.58;46.67
70708;SHT30;58277;47.316;18.908;2024-03-25T12:58:37;12.69;45.58
70708;SHT30;58277;47.316;18.908;2024-03-25T13:01:05;12.96;45.34
70708;SHT30;58277;47.316;18.908;2024-03-25T13:03:28;13.33;43.91
70708;SHT30;58277;47.316;18.908;2024-03-25T13:05:50;13.48;41.89
70708;SHT30;58277;47.316;18.908;2024-03-25T13:08:12;13.89;41.45
70708;SHT30;58277;47.316;18.908;2024-03-25T13:10:34;14.04;40.34
70708;SHT30;58277;47.316;18.908;2024-03-25T13:12:56;14.16;39.82
70708;SHT30;58277;47.316;18.908;2024-03-25T13:15:18;14.26;39.23
70708;SHT30;58277;47.316;18.908;2024-03-25T13:17:40;14.19;38.66
70708;SHT30;58277;47.316;18.908;2024-03-25T13:20:03;14.01;39.90
70708;SHT30;58277;47.316;18.908;2024-03-25T13:22:26;14.06;39.64
70708;SHT30;58277;47.316;18.908;2024-03-25T13:24:48;14.09;40.90
70708;SHT30;58277;47.316;18.908;2024-03-25T13:27:10;14.09;41.82
70708;SHT30;58277;47.316;18.908;2024-03-25T13:29:32;13.86;41.52
70708;SHT30;58277;47.316;18.908;2024-03-25T13:31:54;13.57;42.56
70708;SHT30;58277;47.316;18.908;2024-03-25T13:34:15;13.19;42.19
70708;SHT30;58277;47.316;18.908;2024-03-25T13:36:42;13.03;43.12
70708;SHT30;58277;47.316;18.908;2024-03-25T13:39:04;12.77;42.23
70708;SHT30;58277;47.316;18.908;2024-03-25T13:41:26;12.93;42.15
70708;SHT30;58277;47.316;18.908;2024-03-25T13:43:49;13.03;41.95
70708;SHT30;58277;47.316;18.908;2024-03-25T13:46:14;13.26;41.54
70708;SHT30;58277;47.316;18.908;2024-03-25T13:48:36;13.34;47.35
70708;SHT30;58277;47.316;18.908;2024-03-25T13:50:58;13.28;48.28
70708;SHT30;58277;47.316;18.908;2024-03-25T13:53:20;13.03;48.30
70708;SHT30;58277;47.316;18.908;2024-03-25T13:55:42;13.02;47.95
70708;SHT30;58277;47.316;18.908;2024-03-25T13:58:04;12.84;48.92
70708;SHT30;58277;47.316;18.908;2024-03-25T14:00:27;12.87;49.75
70708;SHT30;58277;47.316;18.908;2024-03-25T14:02:49;12.77;48.98
70708;SHT30;58277;47.316;18.908;2024-03-25T14:05:11;12.79;49.54
70708;SHT30;58277;47.316;18.908;2024-03-25T14:07:33;12.84;50.64
70708;SHT30;58277;47.316;18.908;2024-03-25T14:09:55;12.88;50.87
70708;SHT30;58277;47.316;18.908;2024-03-25T14:12:19;12.92;51.28
70708;SHT30;58277;47.316;18.908;2024-03-25T14:14:42;12.88;50.82
70708;SHT30;58277;47.316;18.908;2024-03-25T14:17:06;12.88;51.27
70708;SHT30;58277;47.316;18.908;2024-03-25T14:19:27;12.89;51.26
70708;SHT30;58277;47.316;18.908;2024-03-25T14:21:52;12.85;50.54
70708;SHT30;58277;47.316;18.908;2024-03-25T14:24:15;12.78;51.16
70708;SHT30;58277;47.316;18.908;2024-03-25T14:26:38;12.88;51.14
70708;SHT30;58277;47.316;18.908;2024-03-25T14:29:00;12.95;49.15
70708;SHT30;58277;47.316;18.908;2024-03-25T14:31:23;12.96;49.96
70708;SHT30;58277;47.316;18.908;2024-03-25T14:33:44;12.99;48.26
70708;SHT30;58277;47.316;18.908;2024-03-25T14:36:07;13.03;46.99
70708;SHT30;58277;47.316;18.908;2024-03-25T14:38:29;12.99;46.68
70708;SHT30;58277;47.316;18.908;2024-03-25T14:40:51;12.96;45.96
70708;SHT30;58277;47.316;18.908;2024-03-25T14:43:14;12.92;46.41
70708;SHT30;58277;47.316;18.908;2024-03-25T14:45:40;12.82;46.50
70708;SHT30;58277;47.316;18.908;2024-03-25T14:48:02;12.87;46.82
70708;SHT30;58277;47.316;18.908;2024-03-25T14:50:24;12.78;46.84
70708;SHT30;58277;47.316;18.908;2024-03-25T14:52:45;12.85;47.03
70708;SHT30;58277;47.316;18.908;2024-03-25T14:55:08;12.91;46.12
70708;SHT30;58277;47.316;18.908;2024-03-25T14:57:32;12.89;46.43